Time;durP1;ratioP1;P1;durP2;ratioP2;P2;SDS_P1;SDS_P2;PMS_P1;PMS_P2;Temp;Humidity;BMP_temperature;BMP_pressure;BME280_temperature;BME280_humidity;BME280_pressure;Samples;Min_cycle;Max_cycle;Signal;HPM_P1;HPM_P2
2022/12/31 00:01:37;;;;;;;76.57;39.42;;;;;;;10.28;87.46;102291.41;5038543;28;20457;-78
2022/12/31 00:04:04;;;;;;;74.35;40.13;;;;;;;10.25;87.35;102283.59;5074631;28;20164;-77
2022/12/31 00:06:33;;;;;;;72.90;37.83;;;;;;;10.27;87.72;102285.22;5074690;28;20052;-78
2022/12/31 00:09:05;;;;;;;80.38;41.58;;;;;;;10.12;87.65;102262.25;5076714;28;20500;-79
2022/12/31 00:11:32;;;;;;;70.35;37.40;;;;;;;10.06;87.50;102244.03;5063475;28;20399;-78
2022/12/31 00:13:59;;;;;;;72.47;37.70;;;;;;;9.99;87.55;102235.59;5075489;28;20051;-78
2022/12/31 00:16:31;;;;;;;70.90;38.10;;;;;;;10.17;87.31;102252.22;5060583;28;20293;-78
2022/12/31 00:18:59;;;;;;;70.53;37.72;;;;;;;10.34;87.50;102283.06;5056071;28;20060;-78
2022/12/31 00:21:29;;;;;;;74.38;37.63;;;;;;;10.20;86.81;102264.44;5074677;28;20048;-79
2022/12/31 00:23:56;;;;;;;71.82;37.63;;;;;;;9.90;86.97;102217.56;5060999;28;20052;-79
2022/12/31 00:26:27;;;;;;;66.30;36.58;;;;;;;9.86;87.64;102208.13;5059900;28;20048;-78
2022/12/31 00:28:55;;;;;;;63.03;35.55;;;;;;;10.16;87.13;102249.66;5057712;28;20040;-78
2022/12/31 00:31:25;;;;;;;66.43;36.25;;;;;;;10.40;87.20;102285.34;5079012;28;20145;-78
2022/12/31 00:33:56;;;;;;;67.95;36.25;;;;;;;10.12;87.35;102249.00;5073116;28;20058;-77
2022/12/31 00:36:27;;;;;;;67.55;35.25;;;;;;;10.43;86.73;102297.56;5054388;28;20132;-78
2022/12/31 00:38:56;;;;;;;63.03;35.63;;;;;;;10.42;86.48;102291.41;5037529;28;20045;-78
2022/12/31 00:41:23;;;;;;;65.85;36.00;;;;;;;10.41;86.20;102287.06;5055942;28;20053;-78
2022/12/31 00:43:52;;;;;;;61.72;34.25;;;;;;;10.42;86.34;102285.25;5038609;28;20117;-77
2022/12/31 00:46:20;;;;;;;63.42;33.20;;;;;;;10.48;86.51;102288.41;5035544;28;20064;-78
2022/12/31 00:48:47;;;;;;;62.00;35.30;;;;;;;10.46;85.90;102287.63;5035277;28;20642;-77
2022/12/31 00:51:19;;;;;;;59.22;33.17;;;;;;;10.50;84.91;102290.09;5039329;28;20407;-77
2022/12/31 00:53:46;;;;;;;57.37;32.77;;;;;;;10.20;85.69;102246.72;5038876;28;20040;-78
2022/12/31 00:56:18;;;;;;;57.28;32.92;;;;;;;10.38;85.63;102284.56;5038219;28;20375;-76
2022/12/31 00:58:46;;;;;;;58.33;30.85;;;;;;;10.35;86.15;102291.88;5051193;28;20052;-77
2022/12/31 01:01:23;;;;;;;63.22;33.17;;;;;;;10.33;86.48;102297.28;5074309;28;20536;-77
2022/12/31 01:03:54;;;;;;;64.13;35.80;;;;;;;10.32;86.56;102297.38;5057201;28;20424;-79
2022/12/31 01:06:22;;;;;;;64.60;33.00;;;;;;;10.23;86.82;102283.69;5052188;28;20051;-78
2022/12/31 01:08:50;;;;;;;63.45;34.42;;;;;;;10.40;86.11;102317.19;5057929;28;20642;-77
2022/12/31 01:11:18;;;;;;;65.50;34.08;;;;;;;9.86;86.51;102232.00;5070125;28;20048;-78
2022/12/31 01:13:49;;;;;;;65.40;35.65;;;;;;;10.31;85.55;102315.09;5056644;28;20062;-75
2022/12/31 01:16:19;;;;;;;71.10;37.08;;;;;;;10.23;86.42;102318.19;5052961;28;20337;-78
2022/12/31 01:18:46;;;;;;;68.72;35.35;;;;;;;10.00;86.46;102285.06;5057349;28;20491;-78
2022/12/31 01:21:14;;;;;;;74.55;38.03;;;;;;;10.27;87.18;102334.78;5056824;28;20060;-78
2022/12/31 01:23:44;;;;;;;74.95;37.85;;;;;;;10.27;87.32;102329.47;5075780;28;20044;-79
2022/12/31 01:26:13;;;;;;;77.25;37.97;;;;;;;10.31;87.60;102333.69;5054486;28;20344;-78
2022/12/31 01:28:40;;;;;;;78.30;38.78;;;;;;;10.41;86.29;102334.84;5055669;28;20044;-77
2022/12/31 01:31:12;;;;;;;71.97;37.47;;;;;;;10.34;86.31;102327.31;5056567;28;20452;-77
2022/12/31 01:33:40;;;;;;;73.65;35.92;;;;;;;10.32;86.91;102339.88;5055908;28;20302;-76
2022/12/31 01:36:11;;;;;;;68.80;36.85;;;;;;;10.15;86.94;102336.38;5071893;28;20063;-78
2022/12/31 01:38:38;;;;;;;69.00;35.72;;;;;;;10.16;87.28;102338.06;5056367;28;20287;-77
2022/12/31 01:41:11;;;;;;;64.85;35.75;;;;;;;10.23;87.46;102342.06;5056265;28;20044;-76
2022/12/31 01:43:49;;;;;;;69.05;36.72;;;;;;;10.26;87.33;102354.31;5071851;28;20501;-78
2022/12/31 01:46:25;;;;;;;74.75;37.47;;;;;;;10.26;87.45;102357.81;5054604;28;20341;-77
2022/12/31 01:49:20;;;;;;;71.30;35.92;;;;;;;9.75;87.71;102260.94;5073174;28;20131;-77
2022/12/31 01:51:59;;;;;;;66.13;36.08;;;;;;;10.04;87.42;102310.47;5052784;28;20277;-76
2022/12/31 01:54:31;;;;;;;74.40;36.20;;;;;;;10.34;87.53;102352.09;5069677;28;20398;-78
2022/12/31 01:56:58;;;;;;;90.43;40.80;;;;;;;10.34;87.13;102348.56;5057078;28;20051;-78
2022/12/31 01:59:27;;;;;;;92.95;42.75;;;;;;;10.30;86.89;102342.59;5053693;28;20125;-78
2022/12/31 02:01:57;;;;;;;79.65;40.30;;;;;;;10.22;86.24;102328.91;5068275;28;20052;-79
2022/12/31 02:04:26;;;;;;;85.53;39.25;;;;;;;10.04;86.79;102307.81;5077548;28;20044;-78
2022/12/31 02:06:59;;;;;;;73.25;36.25;;;;;;;10.32;86.26;102361.09;5073117;28;20475;-76
2022/12/31 02:09:26;;;;;;;69.63;34.85;;;;;;;10.18;86.27;102343.31;5053875;28;20044;-78
2022/12/31 02:11:55;;;;;;;90.07;40.95;;;;;;;10.20;86.07;102357.34;5060185;28;20127;-78
2022/12/31 02:14:33;;;;;;;83.97;40.10;;;;;;;9.98;86.88;102310.84;5061309;28;20056;-78
2022/12/31 02:17:19;;;;;;;84.10;41.20;;;;;;;10.27;86.37;102379.91;5054763;28;20055;-78
2022/12/31 02:20:25;;;;;;;79.10;37.35;;;;;;;10.28;86.51;102373.69;5053057;28;20062;-78
2022/12/31 02:23:25;;;;;;;91.68;43.00;;;;;;;10.34;85.86;102377.75;5049781;28;20082;-78
2022/12/31 02:26:29;;;;;;;85.55;42.35;;;;;;;10.13;86.58;102345.38;5055141;28;20131;-77
2022/12/31 02:29:20;;;;;;;89.20;42.80;;;;;;;10.30;86.74;102379.75;5050851;28;20147;-78
2022/12/31 02:31:57;;;;;;;90.07;41.28;;;;;;;10.00;86.23;102316.91;5052595;28;20048;-78
2022/12/31 02:34:38;;;;;;;84.28;41.20;;;;;;;10.07;86.56;102328.00;5054909;28;20317;-76
2022/12/31 02:37:11;;;;;;;91.10;41.00;;;;;;;9.88;86.74;102299.06;5058807;28;20053;-78
2022/12/31 02:39:39;;;;;;;94.93;41.75;;;;;;;10.31;86.75;102370.84;5028040;28;20045;-77
2022/12/31 02:42:06;;;;;;;90.85;40.28;;;;;;;10.28;86.46;102352.44;5032091;28;20794;-77
2022/12/31 02:44:35;;;;;;;81.00;40.85;;;;;;;10.23;86.45;102346.53;5033218;28;20063;-76
2022/12/31 02:47:09;;;;;;;85.45;41.33;;;;;;;9.82;86.17;102279.03;5035693;28;20045;-78
2022/12/31 02:50:00;;;;;;;94.95;43.38;;;;;;;9.97;86.02;102298.50;5034671;28;20067;-79
2022/12/31 02:52:46;;;;;;;92.45;42.55;;;;;;;10.31;85.90;102354.91;5032517;28;20074;-77
2022/12/31 02:55:49;;;;;;;85.95;41.22;;;;;;;10.24;86.11;102348.22;5048298;28;20049;-78
2022/12/31 03:04:30;;;;;;;76.47;37.70;;;;;;;10.27;85.33;102353.38;5054338;28;20055;-78
2022/12/31 03:07:03;;;;;;;79.72;40.72;;;;;;;10.29;84.88;102345.34;5034458;28;20226;-78
2022/12/31 03:09:31;;;;;;;82.60;40.03;;;;;;;10.20;84.34;102336.94;5038484;28;20053;-77
2022/12/31 03:14:46;;;;;;;91.35;42.63;;;;;;;10.35;84.28;102358.25;5071656;28;20582;-78
2022/12/31 03:17:13;;;;;;;85.20;40.15;;;;;;;10.12;84.73;102338.34;5057250;28;20482;-77
2022/12/31 03:22:27;;;;;;;83.50;42.00;;;;;;;10.17;85.22;102357.50;5074106;28;20297;-78
2022/12/31 03:27:55;;;;;;;85.72;42.45;;;;;;;10.24;85.10;102375.66;5074860;28;20449;-78
2022/12/31 03:30:26;;;;;;;86.25;42.33;;;;;;;10.23;85.62;102375.72;5074571;28;20552;-77
2022/12/31 03:32:55;;;;;;;96.15;44.88;;;;;;;10.28;85.03;102371.03;5073091;28;20580;-77
2022/12/31 03:35:23;;;;;;;76.45;41.13;;;;;;;10.16;85.12;102361.09;5073945;28;20175;-76
2022/12/31 03:37:56;;;;;;;91.72;42.50;;;;;;;10.17;85.05;102368.13;5057066;28;20044;-76
2022/12/31 03:40:25;;;;;;;85.78;41.72;;;;;;;10.27;85.29;102374.59;5055379;28;20055;-77
2022/12/31 03:42:52;;;;;;;80.35;38.05;;;;;;;10.36;85.33;102368.75;5055983;28;20051;-76
2022/12/31 03:45:22;;;;;;;81.65;41.45;;;;;;;10.41;84.89;102387.94;5053930;28;20549;-77
2022/12/31 03:47:50;;;;;;;84.13;41.00;;;;;;;10.37;84.87;102391.72;5058088;28;20135;-76
2022/12/31 03:50:22;;;;;;;80.28;38.40;;;;;;;10.16;84.72;102361.09;5058774;28;20534;-77
2022/12/31 03:52:49;;;;;;;86.20;41.53;;;;;;;10.14;85.11;102357.69;5055677;28;20382;-76
2022/12/31 03:55:16;;;;;;;83.70;40.97;;;;;;;10.40;84.91;102396.84;5059465;28;20462;-76
2022/12/31 03:57:43;;;;;;;88.65;37.90;;;;;;;10.21;84.78;102359.03;5054657;28;20047;-76
2022/12/31 04:00:13;;;;;;;80.38;37.58;;;;;;;9.65;84.82;102270.38;5051431;28;20505;-77
2022/12/31 04:02:41;;;;;;;83.63;39.92;;;;;;;10.23;85.80;102368.63;5054769;28;20052;-76
2022/12/31 04:05:08;;;;;;;71.93;37.22;;;;;;;10.30;85.25;102385.06;5055432;28;20287;-76
2022/12/31 04:07:35;;;;;;;89.28;40.17;;;;;;;10.33;85.21;102395.50;5071906;28;20048;-76
2022/12/31 04:10:07;;;;;;;74.43;38.10;;;;;;;10.40;85.43;102396.84;5052104;28;20123;-77
2022/12/31 04:12:37;;;;;;;76.68;37.80;;;;;;;10.33;85.13;102374.25;5054272;28;20070;-77
2022/12/31 04:15:17;;;;;;;72.20;38.42;;;;;;;10.26;85.19;102372.88;5052475;28;20055;-76
2022/12/31 04:17:44;;;;;;;83.65;37.22;;;;;;;10.27;85.31;102364.00;5055082;28;20082;-76
2022/12/31 04:20:15;;;;;;;73.60;36.03;;;;;;;10.40;85.34;102386.22;5055618;28;20205;-79
2022/12/31 04:22:42;;;;;;;67.78;34.00;;;;;;;10.51;84.79;102372.31;5053150;28;20072;-79
2022/12/31 04:25:10;;;;;;;81.55;37.17;;;;;;;10.53;84.25;102385.50;5054886;28;20325;-76
2022/12/31 04:27:44;;;;;;;71.80;36.72;;;;;;;10.47;83.18;102363.66;5054135;28;20048;-75
2022/12/31 04:30:14;;;;;;;72.43;36.00;;;;;;;10.55;84.46;102378.28;5077144;28;20063;-76
2022/12/31 04:32:41;;;;;;;65.03;35.60;;;;;;;10.57;83.28;102384.38;5054941;28;20346;-75
2022/12/31 04:35:10;;;;;;;70.03;36.83;;;;;;;10.54;83.37;102387.22;5052988;28;20196;-77
2022/12/31 04:37:43;;;;;;;70.22;36.65;;;;;;;10.53;83.41;102389.00;5047415;28;20551;-76
2022/12/31 04:40:10;;;;;;;66.75;35.22;;;;;;;10.50;83.44;102380.38;5030664;28;20203;-76
2022/12/31 04:42:39;;;;;;;71.13;36.67;;;;;;;10.65;83.72;102390.91;5042858;28;20056;-79
2022/12/31 04:45:08;;;;;;;60.28;34.20;;;;;;;10.56;83.26;102382.63;5032171;28;20122;-78
2022/12/31 04:47:37;;;;;;;74.78;36.78;;;;;;;10.57;82.36;102387.88;5033895;28;20045;-77
2022/12/31 04:50:05;;;;;;;63.63;34.42;;;;;;;10.34;82.25;102357.41;5031702;28;20048;-77
2022/12/31 04:52:34;;;;;;;64.70;35.17;;;;;;;10.53;81.96;102396.09;5037723;28;20326;-78
2022/12/31 04:55:09;;;;;;;62.90;34.78;;;;;;;10.50;82.54;102393.66;5032447;28;20300;-76
2022/12/31 04:57:35;;;;;;;60.08;32.58;;;;;;;10.43;82.56;102401.97;5043350;28;20044;-76
2022/12/31 05:00:05;;;;;;;62.45;35.03;;;;;;;10.32;82.26;102385.84;5054035;28;20217;-77
2022/12/31 05:02:32;;;;;;;63.25;34.15;;;;;;;10.54;82.66;102408.47;5048329;28;20102;-77
2022/12/31 05:04:59;;;;;;;62.78;32.47;;;;;;;10.64;82.42;102409.59;5050141;28;20371;-76
2022/12/31 05:07:26;;;;;;;57.70;31.10;;;;;;;10.47;82.02;102414.13;5047260;28;20059;-78
2022/12/31 05:09:58;;;;;;;62.72;29.98;;;;;;;10.50;81.83;102431.66;5050493;28;20387;-77
2022/12/31 05:12:25;;;;;;;61.35;30.45;;;;;;;10.06;82.15;102377.56;5052337;28;20110;-77
2022/12/31 05:14:52;;;;;;;59.45;31.05;;;;;;;10.04;82.63;102379.44;5046835;28;20052;-76
2022/12/31 05:17:22;;;;;;;48.05;27.63;;;;;;;10.23;82.90;102410.22;5052947;28;20123;-77
2022/12/31 05:19:49;;;;;;;50.97;28.63;;;;;;;10.33;82.74;102439.78;5050514;28;20049;-76
2022/12/31 05:22:28;;;;;;;56.90;30.05;;;;;;;10.12;82.84;102417.97;5048642;28;20048;-79
2022/12/31 05:24:57;;;;;;;52.65;29.73;;;;;;;10.06;83.56;102438.59;5047084;28;20059;-77
2022/12/31 05:27:29;;;;;;;57.92;29.70;;;;;;;10.06;83.69;102462.47;5050638;28;20395;-77
2022/12/31 05:30:02;;;;;;;56.22;30.65;;;;;;;9.96;83.83;102461.31;5057642;28;20500;-77
2022/12/31 05:32:28;;;;;;;57.80;30.55;;;;;;;9.99;84.80;102474.38;5066785;28;20426;-77
2022/12/31 05:34:56;;;;;;;51.45;28.77;;;;;;;9.76;84.80;102453.63;5054862;28;20049;-77
2022/12/31 05:37:23;;;;;;;49.75;28.02;;;;;;;9.13;84.26;102354.56;5050197;28;20056;-78
2022/12/31 05:39:50;;;;;;;51.35;28.20;;;;;;;9.74;84.98;102452.84;5034458;28;20064;-77
2022/12/31 05:42:17;;;;;;;49.70;26.45;;;;;;;9.92;84.73;102486.28;5029533;28;20052;-77
2022/12/31 05:44:48;;;;;;;52.53;28.77;;;;;;;10.08;85.07;102480.13;5031663;28;20106;-77
2022/12/31 05:47:15;;;;;;;49.83;26.10;;;;;;;9.59;84.15;102405.03;5032946;28;20055;-77
2022/12/31 05:49:43;;;;;;;53.08;27.20;;;;;;;9.97;83.86;102484.22;5032908;28;20118;-76
2022/12/31 05:52:10;;;;;;;44.05;25.35;;;;;;;9.84;84.15;102459.34;5027486;28;20041;-77
2022/12/31 05:54:37;;;;;;;47.67;24.52;;;;;;;9.97;84.25;102494.84;5026219;28;20041;-77
2022/12/31 05:57:07;;;;;;;44.90;25.23;;;;;;;9.62;84.02;102436.66;5047112;28;20097;-78
2022/12/31 05:59:33;;;;;;;45.58;26.27;;;;;;;9.76;84.16;102469.53;5034226;28;20430;-77
2022/12/31 06:02:04;;;;;;;45.70;24.77;;;;;;;9.85;84.30;102506.13;5036820;28;20056;-77
2022/12/31 06:04:31;;;;;;;42.35;24.13;;;;;;;9.76;83.97;102509.31;5031530;28;20389;-77
2022/12/31 06:07:00;;;;;;;40.38;23.77;;;;;;;9.52;83.86;102480.56;5034249;28;20049;-77
2022/12/31 06:09:27;;;;;;;47.67;24.60;;;;;;;9.66;84.48;102516.06;5032328;28;20056;-76
2022/12/31 06:11:54;;;;;;;40.65;24.50;;;;;;;9.60;85.24;102518.09;5014506;28;20049;-77
2022/12/31 06:14:21;;;;;;;40.58;24.42;;;;;;;9.61;85.23;102525.13;5028290;28;20079;-78
2022/12/31 06:16:49;;;;;;;41.80;24.08;;;;;;;9.58;85.25;102505.88;5052481;28;20129;-78
2022/12/31 06:19:16;;;;;;;45.40;25.55;;;;;;;9.68;85.05;102516.81;5042781;28;20583;-78
2022/12/31 06:21:43;;;;;;;44.67;24.45;;;;;;;9.68;84.90;102527.44;5038359;28;20076;-78
2022/12/31 06:24:10;;;;;;;43.42;24.73;;;;;;;9.46;84.46;102494.13;5046208;28;20060;-77
2022/12/31 06:26:37;;;;;;;44.08;25.48;;;;;;;9.51;84.42;102513.28;5035345;28;20270;-78
2022/12/31 06:29:04;;;;;;;40.38;24.05;;;;;;;9.49;84.37;102509.00;5030792;28;20051;-78
2022/12/31 06:31:34;;;;;;;41.22;23.77;;;;;;;9.54;84.13;102534.34;5035421;28;20423;-77
2022/12/31 06:34:04;;;;;;;41.20;24.95;;;;;;;9.53;84.49;102548.53;5030823;28;20287;-76
2022/12/31 06:36:31;;;;;;;40.92;25.20;;;;;;;9.41;84.41;102520.03;5029036;28;20133;-78
2022/12/31 06:38:58;;;;;;;45.70;27.10;;;;;;;9.62;83.78;102555.16;5011071;28;20637;-76
2022/12/31 06:41:24;;;;;;;49.55;24.83;;;;;;;9.56;83.83;102559.00;5010428;28;20462;-76
2022/12/31 06:43:51;;;;;;;49.78;25.50;;;;;;;9.44;84.26;102541.06;5014512;28;20144;-78
2022/12/31 06:46:18;;;;;;;41.30;25.27;;;;;;;9.48;84.01;102560.34;5032807;28;20388;-77
2022/12/31 06:48:45;;;;;;;43.65;26.52;;;;;;;9.54;84.16;102576.78;5031640;28;20045;-77
2022/12/31 06:51:17;;;;;;;43.53;26.17;;;;;;;9.54;84.30;102576.78;5047966;28;20036;-79
2022/12/31 06:53:44;;;;;;;;;;;;;;;9.59;85.11;102572.09;5050701;28;20045;-76
2022/12/31 06:56:24;;;;;;;46.95;25.27;;;;;;;9.43;83.97;102539.38;5043696;28;20333;-78
2022/12/31 06:58:59;;;;;;;50.80;25.75;;;;;;;9.61;84.88;102575.53;5030820;28;20052;-77
2022/12/31 07:01:36;;;;;;;49.30;28.73;;;;;;;9.54;84.47;102566.19;5031810;28;20048;-78
2022/12/31 07:04:09;;;;;;;51.78;27.05;;;;;;;9.55;84.32;102582.94;5057889;28;20048;-78
2022/12/31 07:06:50;;;;;;;47.05;26.90;;;;;;;9.49;84.38;102586.78;5056470;28;20059;-78
2022/12/31 07:09:32;;;;;;;48.05;27.35;;;;;;;9.58;85.14;102588.06;5072731;28;20047;-77
2022/12/31 07:12:12;;;;;;;40.63;25.48;;;;;;;9.56;84.10;102585.50;5033760;28;20045;-78
2022/12/31 07:14:50;;;;;;;44.60;26.30;;;;;;;9.59;84.66;102593.31;5053389;28;20048;-78
2022/12/31 07:18:09;;;;;;;47.20;27.48;;;;;;;9.57;84.06;102592.53;5034712;28;20052;-78
2022/12/31 07:20:36;;;;;;;43.38;26.50;;;;;;;9.62;84.43;102603.75;4965608;28;20347;-77
2022/12/31 07:23:03;;;;;;;48.80;26.40;;;;;;;9.61;84.77;102596.72;5001908;28;20053;-78
2022/12/31 07:25:31;;;;;;;53.45;27.83;;;;;;;9.71;85.02;102609.47;5036821;28;20048;-78
2022/12/31 07:28:19;;;;;;;52.38;27.90;;;;;;;9.71;84.14;102598.88;5054895;28;20427;-78
2022/12/31 07:31:01;;;;;;;47.33;25.92;;;;;;;9.82;83.73;102623.03;5051782;28;20482;-77
2022/12/31 07:33:34;;;;;;;45.40;25.00;;;;;;;9.77;83.44;102614.47;5053242;28;20048;-78
2022/12/31 07:36:39;;;;;;;39.42;25.92;;;;;;;9.67;84.45;102615.91;5052678;28;20369;-78
2022/12/31 07:39:15;;;;;;;49.63;27.08;;;;;;;9.62;83.85;102611.69;5036531;28;20037;-78
2022/12/31 07:42:09;;;;;;;41.88;25.60;;;;;;;9.67;83.75;102629.16;5037737;28;20110;-78
2022/12/31 07:45:09;;;;;;;41.00;25.02;;;;;;;9.69;84.15;102628.16;5056077;28;20055;-78
2022/12/31 07:47:39;;;;;;;41.75;24.27;;;;;;;9.76;84.00;102634.00;5073857;28;20117;-78
2022/12/31 07:50:13;;;;;;;48.55;25.88;;;;;;;9.77;83.84;102630.38;5077682;28;20047;-78
2022/12/31 07:52:41;;;;;;;40.50;25.20;;;;;;;9.68;83.02;102605.19;5059584;28;20044;-77
2022/12/31 07:55:09;;;;;;;41.55;24.55;;;;;;;9.49;82.49;102568.22;5055540;28;20498;-77
2022/12/31 07:57:57;;;;;;;46.67;26.15;;;;;;;9.87;82.48;102644.88;5052896;28;20089;-78
2022/12/31 08:00:24;;;;;;;44.60;26.10;;;;;;;9.89;82.54;102628.88;5055002;28;20463;-78
2022/12/31 08:03:14;;;;;;;39.40;25.05;;;;;;;9.97;82.45;102648.72;5072065;28;20086;-78
2022/12/31 08:06:32;;;;;;;44.13;26.23;;;;;;;9.97;81.83;102631.97;5054850;28;20056;-77
2022/12/31 08:09:08;;;;;;;48.75;25.55;;;;;;;10.03;81.70;102648.41;4963614;28;20136;-78
2022/12/31 08:11:45;;;;;;;46.28;26.70;;;;;;;10.01;81.80;102644.13;4970930;28;20046;-79
2022/12/31 08:14:15;;;;;;;45.30;27.25;;;;;;;10.05;82.14;102643.88;4953513;28;20081;-77
2022/12/31 08:16:42;;;;;;;48.72;27.45;;;;;;;10.18;81.87;102653.84;4951620;28;20319;-77
2022/12/31 08:19:29;;;;;;;43.53;26.40;;;;;;;9.91;82.43;102593.38;4960083;28;20193;-78
2022/12/31 08:22:07;;;;;;;44.42;27.88;;;;;;;10.26;81.44;102655.13;5047671;28;20071;-76
2022/12/31 08:24:56;;;;;;;47.35;28.58;;;;;;;10.33;80.93;102658.31;5050638;28;20051;-77
2022/12/31 08:28:17;;;;;;;50.70;28.52;;;;;;;10.45;79.38;102665.59;5035190;28;20386;-77
2022/12/31 08:31:31;;;;;;;51.22;28.95;;;;;;;10.48;80.11;102681.41;4990856;28;20054;-78
2022/12/31 08:34:51;;;;;;;49.60;30.15;;;;;;;10.06;80.27;102613.75;5025665;28;20049;-78
2022/12/31 08:37:38;;;;;;;45.30;24.95;;;;;;;10.50;80.72;102673.31;5035350;28;20056;-78
2022/12/31 08:40:29;;;;;;;48.40;28.83;;;;;;;10.51;79.59;102658.25;5044746;28;20040;-78
2022/12/31 08:43:09;;;;;;;50.92;28.90;;;;;;;10.39;78.74;102630.56;5056010;28;20279;-78
2022/12/31 08:45:51;;;;;;;52.85;30.58;;;;;;;10.37;78.93;102620.06;5057594;28;20056;-77
2022/12/31 08:48:36;;;;;;;49.42;30.20;;;;;;;10.70;78.59;102690.78;5055499;28;20163;-77
2022/12/31 08:51:03;;;;;;;54.10;29.00;;;;;;;10.52;78.53;102662.63;5057114;28;20044;-78
2022/12/31 08:53:30;;;;;;;52.38;30.13;;;;;;;10.66;79.43;102673.34;5059448;28;20102;-77
2022/12/31 08:56:16;;;;;;;50.65;30.63;;;;;;;10.82;78.79;102684.78;5054593;28;20492;-78
2022/12/31 08:58:56;;;;;;;50.83;30.30;;;;;;;10.90;78.65;102695.00;5059241;28;20557;-78
2022/12/31 09:01:29;;;;;;;54.28;31.88;;;;;;;10.44;78.30;102610.81;5055681;28;20051;-79
2022/12/31 09:03:57;;;;;;;53.78;30.90;;;;;;;10.71;78.15;102650.03;5055032;28;20364;-78
2022/12/31 09:06:51;;;;;;;58.30;32.63;;;;;;;11.08;76.34;102701.91;5060159;28;20080;-77
2022/12/31 09:09:31;;;;;;;61.10;34.30;;;;;;;10.72;76.45;102651.72;5076612;28;20334;-77
2022/12/31 09:12:22;;;;;;;64.03;36.65;;;;;;;11.04;75.96;102704.81;5032828;28;20486;-78
2022/12/31 09:15:29;;;;;;;63.45;34.63;;;;;;;10.86;77.09;102680.16;5037655;28;20147;-78
2022/12/31 09:17:57;;;;;;;49.40;28.92;;;;;;;11.01;77.09;102705.00;5031374;28;20064;-78
2022/12/31 09:20:28;;;;;;;66.45;39.17;;;;;;;11.06;77.60;102710.91;5045330;28;20071;-77
2022/12/31 09:23:11;;;;;;;69.95;39.25;;;;;;;11.18;76.18;102718.19;5055759;28;20062;-78
2022/12/31 09:25:50;;;;;;;77.32;41.75;;;;;;;10.77;74.65;102646.16;5051303;28;20468;-78
2022/12/31 09:28:22;;;;;;;83.65;43.88;;;;;;;11.26;73.82;102728.38;5052294;28;20114;-78
2022/12/31 09:31:11;;;;;;;74.00;42.65;;;;;;;11.27;74.18;102725.63;5053482;28;20119;-77
2022/12/31 09:33:51;;;;;;;79.15;44.40;;;;;;;11.23;74.84;102712.59;5054902;28;20410;-77
2022/12/31 09:36:27;;;;;;;80.15;45.40;;;;;;;11.25;74.18;102714.22;5056051;28;20048;-78
2022/12/31 09:39:09;;;;;;;71.03;43.60;;;;;;;11.18;74.20;102698.72;5072927;28;20493;-76
2022/12/31 09:41:39;;;;;;;;;;;;;;;11.28;73.91;102731.78;5055112;28;20064;-78
2022/12/31 09:44:43;;;;;;;87.07;46.03;;;;;;;11.34;73.97;102724.31;5055561;28;20066;-77
2022/12/31 09:47:30;;;;;;;84.40;44.78;;;;;;;11.36;75.39;102726.03;5071000;28;20133;-77
2022/12/31 09:50:21;;;;;;;86.93;44.85;;;;;;;11.10;73.69;102649.50;5073824;28;20054;-77
2022/12/31 09:53:26;;;;;;;77.35;46.95;;;;;;;11.52;73.74;102721.53;5054912;28;20063;-77
2022/12/31 09:56:00;;;;;;;67.05;38.53;;;;;;;11.54;74.14;102715.16;5051509;28;20356;-78
2022/12/31 09:58:36;;;;;;;81.57;46.08;;;;;;;11.74;74.87;102721.94;5053544;28;20059;-77
2022/12/31 10:01:16;;;;;;;91.75;47.05;;;;;;;11.38;74.21;102649.69;5052057;28;20228;-79
2022/12/31 10:04:05;;;;;;;78.80;44.90;;;;;;;11.42;73.59;102661.84;5056964;28;20517;-76
2022/12/31 10:06:44;;;;;;;71.20;41.42;;;;;;;10.44;72.68;102501.94;5054806;28;20231;-77
2022/12/31 10:09:56;;;;;;;73.97;42.67;;;;;;;11.70;72.97;102701.81;5064897;28;20047;-77
2022/12/31 10:12:41;;;;;;;78.55;43.63;;;;;;;11.52;72.80;102671.00;4967586;28;20046;-77
2022/12/31 10:15:22;;;;;;;75.80;42.40;;;;;;;11.50;73.04;102664.91;5056880;28;20102;-77
2022/12/31 10:17:52;;;;;;;77.85;43.75;;;;;;;11.71;74.12;102698.19;5057698;28;20135;-78
2022/12/31 10:20:24;;;;;;;82.63;44.33;;;;;;;11.77;74.51;102695.19;5044815;28;20464;-76
2022/12/31 10:23:16;;;;;;;74.93;43.55;;;;;;;11.84;74.15;102689.47;5074137;28;20056;-77
2022/12/31 10:25:53;;;;;;;73.88;44.47;;;;;;;11.87;73.46;102689.31;5075553;28;20513;-77
2022/12/31 10:28:44;;;;;;;71.82;43.78;;;;;;;11.89;73.31;102698.94;5074129;28;20051;-77
2022/12/31 10:31:48;;;;;;;76.35;44.90;;;;;;;11.86;72.97;102699.06;5061474;28;20058;-77
2022/12/31 10:34:41;;;;;;;76.30;42.78;;;;;;;11.94;70.82;102690.63;5038729;28;20300;-77
2022/12/31 10:37:15;;;;;;;;;;;;;;;11.91;72.31;102689.03;5055326;28;20048;-77
2022/12/31 10:40:00;;;;;;;79.55;45.78;;;;;;;11.86;72.66;102690.22;5057072;28;19924;-77
2022/12/31 10:42:36;;;;;;;80.63;44.85;;;;;;;11.95;72.01;102687.88;5075047;28;20063;-77
2022/12/31 10:45:31;;;;;;;80.70;45.85;;;;;;;11.95;70.98;102679.91;5056234;28;20040;-78
2022/12/31 10:48:29;;;;;;;83.13;44.13;;;;;;;11.89;71.33;102671.44;5036923;28;20494;-78
2022/12/31 10:51:17;;;;;;;81.03;42.95;;;;;;;11.69;70.27;102616.75;5044909;28;20476;-78
2022/12/31 10:53:53;;;;;;;75.72;42.25;;;;;;;12.11;70.44;102678.94;5053152;28;20444;-78
2022/12/31 10:56:54;;;;;;;68.72;41.47;;;;;;;12.06;70.17;102679.22;5068849;28;20047;-79
2022/12/31 10:59:23;;;;;;;77.30;41.75;;;;;;;12.13;71.54;102683.22;5054329;28;20071;-78
2022/12/31 11:02:00;;;;;;;81.85;43.47;;;;;;;12.18;70.42;102677.59;5034338;28;20415;-79
2022/12/31 11:04:39;;;;;;;69.75;41.72;;;;;;;12.27;70.56;102660.22;5070442;28;20062;-78
2022/12/31 11:07:31;;;;;;;73.80;42.63;;;;;;;12.24;70.43;102633.78;5070263;28;20047;-78
2022/12/31 11:10:16;;;;;;;71.60;42.33;;;;;;;12.41;70.96;102652.19;5070146;28;20051;-77
2022/12/31 11:13:01;;;;;;;67.45;38.33;;;;;;;12.64;71.19;102642.69;5070645;28;20048;-76
2022/12/31 11:15:27;;;;;;;68.82;38.83;;;;;;;12.57;71.28;102631.63;5055730;28;20048;-75
2022/12/31 11:17:57;;;;;;;67.15;40.42;;;;;;;12.64;70.69;102647.19;5051770;28;20087;-77
2022/12/31 11:20:49;;;;;;;70.90;40.85;;;;;;;12.26;69.12;102574.16;5059136;28;20489;-77
2022/12/31 11:23:31;;;;;;;65.85;39.30;;;;;;;12.68;68.35;102646.03;5083779;28;20059;-77
2022/12/31 11:26:12;;;;;;;;;;;;;;;12.58;70.17;102643.13;5085501;28;20128;-76
2022/12/31 11:29:06;;;;;;;65.97;40.33;;;;;;;12.63;69.04;102651.66;5077090;28;19964;-76
2022/12/31 11:32:05;;;;;;;74.60;40.55;;;;;;;12.50;68.87;102651.63;5075685;28;20044;-76
2022/12/31 11:34:47;;;;;;;63.63;39.95;;;;;;;12.45;68.48;102632.41;5038638;28;20048;-77
2022/12/31 11:37:30;;;;;;;;;;;;;;;12.59;68.49;102660.81;5036257;28;20052;-77
2022/12/31 11:40:13;;;;;;;68.90;40.05;;;;;;;12.12;69.57;102609.63;5036732;28;19928;-76
2022/12/31 11:43:02;;;;;;;61.88;39.97;;;;;;;12.49;69.74;102662.34;5040577;28;20048;-77
2022/12/31 11:46:01;;;;;;;60.33;37.13;;;;;;;12.54;69.03;102657.59;5065714;28;20050;-76
2022/12/31 11:48:51;;;;;;;63.72;37.92;;;;;;;12.34;68.70;102618.91;5054016;28;20467;-77
2022/12/31 11:51:37;;;;;;;70.78;38.25;;;;;;;12.48;68.23;102660.66;5076981;28;20758;-76
2022/12/31 11:54:41;;;;;;;66.88;37.63;;;;;;;12.44;70.20;102661.81;5060354;28;20052;-77
2022/12/31 11:57:16;;;;;;;61.30;37.28;;;;;;;12.44;69.48;102664.47;5061599;28;20068;-75
2022/12/31 11:59:45;;;;;;;63.90;36.95;;;;;;;12.01;70.13;102585.50;5058680;28;20056;-77
2022/12/31 12:02:34;;;;;;;59.13;35.63;;;;;;;12.51;68.96;102652.47;5076151;28;20059;-76
2022/12/31 12:05:05;;;;;;;61.97;34.80;;;;;;;12.47;68.64;102632.28;5077803;28;20067;-76
2022/12/31 12:07:36;;;;;;;60.45;36.58;;;;;;;12.40;69.45;102630.03;5079050;28;20047;-78